Pep, New Mexico
Current Conditions -  °F | °C
As of 12:58 PM on Saturday 20 Dec 2014 (Local Time) from KCVS Reporting Station
Clear Clear  
Wind Chill: 50°   Ceiling: Unl
Heat Index: 50°   Visibility: 10mi
Dew Point: 20°   Wind: 12mph
Humidity: 31%   Direction: 250°WSW
Pressure: 30.01"   Gusts: NA
Location:  33.84°N, 103.34°W
Report Text: KCVS 201958Z AUTO 25010KT 10SM CLR 10/M06 A3001 RMK AO2 SLP157 T01021064 $
Loading
Personal Weather Stations






























Interactive Weather Map New forecast layout! Learn more

10-Day Weather Forecast

Advertisements
Track Severe Weather on mobile